createdAt,value
2018-04-16T00:00:35.810Z,80.53
2018-04-16T00:01:35.776Z,79.69
2018-04-16T00:02:35.771Z,79.28
2018-04-16T00:03:35.776Z,78.72
2018-04-16T00:04:35.777Z,79.02
2018-04-16T00:05:35.780Z,78.92
2018-04-16T00:06:35.781Z,79.32
2018-04-16T00:07:35.768Z,79.35
2018-04-16T00:09:35.760Z,79.53
2018-04-16T00:10:35.820Z,79.74
2018-04-16T00:11:35.795Z,78.89
2018-04-16T00:12:35.771Z,79.35
2018-04-16T00:13:35.790Z,79.16
2018-04-16T00:14:35.789Z,79.06
2018-04-16T00:15:35.782Z,78.59
2018-04-16T00:16:35.744Z,78.77
2018-04-16T00:17:35.748Z,79.19
2018-04-16T00:18:35.784Z,79.47
2018-04-16T00:19:35.753Z,78.5
2018-04-16T00:20:35.759Z,79.19
2018-04-16T00:21:35.774Z,78.73
2018-04-16T00:22:35.762Z,79.65
2018-04-16T00:23:35.808Z,80.48
2018-04-16T00:24:35.794Z,80.02
2018-04-16T00:25:35.748Z,79.98
2018-04-16T00:26:35.740Z,80.39
2018-04-16T00:27:35.763Z,79.02
2018-04-16T00:28:35.734Z,79.11
2018-04-16T00:29:35.768Z,79.83
2018-04-16T00:30:35.795Z,79.8
2018-04-16T00:31:35.729Z,80.45
2018-04-16T00:32:36.215Z,80.81
2018-04-16T00:33:35.741Z,80.43
2018-04-16T00:34:35.758Z,80.26
2018-04-16T00:35:35.755Z,80.85
2018-04-16T00:36:35.767Z,79.67
2018-04-16T00:37:35.742Z,79.95
2018-04-16T00:38:35.725Z,80.85
2018-04-16T00:39:35.722Z,80.86
2018-04-16T00:40:35.730Z,81.3
2018-04-16T00:41:35.720Z,80.59
2018-04-16T00:42:35.756Z,81.02
2018-04-16T00:43:35.716Z,80.2
2018-04-16T00:44:35.828Z,80.42
2018-04-16T00:45:35.718Z,80.42
2018-04-16T00:46:35.805Z,80.43
2018-04-16T00:47:35.741Z,80.04
2018-04-16T00:48:35.705Z,79.87
2018-04-16T00:49:35.727Z,80.3
2018-04-16T00:50:35.728Z,79.9
2018-04-16T00:51:35.729Z,79.73
2018-04-16T00:52:35.828Z,79.57
2018-04-16T00:53:35.718Z,79.53
2018-04-16T00:54:35.748Z,78.93
2018-04-16T00:55:35.704Z,78.08
2018-04-16T00:56:35.692Z,78.27
2018-04-16T00:57:35.859Z,78.53
2018-04-16T00:58:35.710Z,78.44
2018-04-16T00:59:35.686Z,78.65
2018-04-16T01:00:35.700Z,80.07
2018-04-16T01:01:35.701Z,79.96
2018-04-16T01:02:35.715Z,80.44
2018-04-16T01:03:35.699Z,80.5
2018-04-16T01:04:35.686Z,80.92
2018-04-16T01:05:35.696Z,81.01
2018-04-16T01:06:35.696Z,81.09
2018-04-16T01:07:35.671Z,80.12
2018-04-16T01:08:35.705Z,80.7
2018-04-16T01:09:35.685Z,79.86
2018-04-16T01:10:35.685Z,79.22
2018-04-16T01:11:35.676Z,79.19
2018-04-16T01:12:35.684Z,80.41
2018-04-16T01:13:35.705Z,80.46
2018-04-16T01:14:35.693Z,79.54
2018-04-16T01:15:35.719Z,79.55
2018-04-16T01:16:35.679Z,79.36
2018-04-16T01:17:35.850Z,78.94
2018-04-16T01:18:35.693Z,78.93
2018-04-16T01:19:35.669Z,78.54
2018-04-16T01:20:35.665Z,78.55
2018-04-16T01:21:35.666Z,79.33
2018-04-16T01:22:35.686Z,78.97
2018-04-16T01:23:35.664Z,80.18
2018-04-16T01:24:35.671Z,79.38
2018-04-16T01:25:35.673Z,79.37
2018-04-16T01:26:35.683Z,79.19
2018-04-16T01:27:35.662Z,78.77
2018-04-16T01:28:35.662Z,80.44
2018-04-16T01:29:35.812Z,79.71
2018-04-16T01:30:35.686Z,80.29
2018-04-16T01:31:35.656Z,80.28
2018-04-16T01:32:35.776Z,79.56
2018-04-16T01:33:35.653Z,79.87
2018-04-16T01:34:35.694Z,79.43
2018-04-16T01:35:35.752Z,79.81
2018-04-16T01:36:35.644Z,78.79
2018-04-16T01:37:35.699Z,78.68
2018-04-16T01:38:35.656Z,78.51
2018-04-16T01:39:35.656Z,78.74
2018-04-16T01:40:35.670Z,79.41
2018-04-16T01:41:35.650Z,79.26
2018-04-16T01:42:35.672Z,79.02
2018-04-16T01:43:35.640Z,78.76
2018-04-16T01:44:35.661Z,78.57
2018-04-16T01:45:35.645Z,78.61
2018-04-16T01:46:35.653Z,78.57
2018-04-16T01:47:35.634Z,79.29
2018-04-16T01:48:35.659Z,79.73
2018-04-16T01:49:35.817Z,78.97
2018-04-16T01:50:35.671Z,78.56
2018-04-16T01:51:35.645Z,78.51
2018-04-16T01:52:35.631Z,78.5
2018-04-16T01:53:35.624Z,78.24
2018-04-16T01:54:35.666Z,79.16
2018-04-16T01:55:35.643Z,79.47
2018-04-16T01:56:35.640Z,78.89
2018-04-16T01:57:35.711Z,79.35
2018-04-16T01:58:35.636Z,79.02
2018-04-16T01:59:35.628Z,79.71
2018-04-16T02:00:35.624Z,79.49
2018-04-16T02:01:35.697Z,79.18
2018-04-16T02:02:35.641Z,78.74
2018-04-16T02:03:35.617Z,78.93
2018-04-16T02:04:35.615Z,78.46
2018-04-16T02:05:35.622Z,79.25
2018-04-16T02:06:35.623Z,79.06
2018-04-16T02:07:35.611Z,81.03
2018-04-16T02:08:35.604Z,80.46
2018-04-16T02:09:35.601Z,79.59
2018-04-16T02:10:35.636Z,79.13
2018-04-16T02:11:35.858Z,79.97
2018-04-16T02:12:35.605Z,79.71
2018-04-16T02:13:35.610Z,79.28
2018-04-16T02:14:35.631Z,79.08
2018-04-16T02:15:35.640Z,79.4
2018-04-16T02:16:35.644Z,78.93
2018-04-16T02:17:35.600Z,78.7
2018-04-16T02:18:35.592Z,78.78
2018-04-16T02:19:35.612Z,78.7
2018-04-16T02:20:35.584Z,78.74
2018-04-16T02:21:35.575Z,78.72
2018-04-16T02:22:35.634Z,78.77
2018-04-16T02:23:35.661Z,78.79
2018-04-16T02:24:35.576Z,78.48
2018-04-16T02:25:35.605Z,78.31
2018-04-16T02:26:35.602Z,78.41
2018-04-16T02:27:35.647Z,78.17
2018-04-16T02:28:35.598Z,77.94
2018-04-16T02:29:35.575Z,78.04
2018-04-16T02:30:35.652Z,78.66
2018-04-16T02:31:35.640Z,78.07
2018-04-16T02:32:35.595Z,77.96
2018-04-16T02:33:35.579Z,78.48
2018-04-16T02:34:35.573Z,78.55
2018-04-16T02:35:35.798Z,78.41
2018-04-16T02:36:35.616Z,78.78
2018-04-16T02:37:35.582Z,78.6
2018-04-16T02:38:35.599Z,79.13
2018-04-16T02:39:35.588Z,78.54
2018-04-16T02:40:35.625Z,78.91
2018-04-16T02:41:35.579Z,79.08
2018-04-16T02:42:35.568Z,78.95
2018-04-16T02:43:35.569Z,78.82
2018-04-16T02:44:35.602Z,79.33
2018-04-16T02:45:35.541Z,79.09
2018-04-16T02:46:35.683Z,79.58
2018-04-16T02:47:35.570Z,79.09
2018-04-16T02:48:35.556Z,78.96
2018-04-16T02:49:35.577Z,79.77
2018-04-16T02:50:35.588Z,78.77
2018-04-16T02:51:35.551Z,78.72
2018-04-16T02:52:35.545Z,79.7
2018-04-16T02:53:35.549Z,79.53
2018-04-16T02:54:35.538Z,79.82
2018-04-16T02:55:35.572Z,79.66
2018-04-16T02:56:35.549Z,79.27
2018-04-16T02:57:35.543Z,78.83
2018-04-16T02:58:35.539Z,78.98
2018-04-16T02:59:35.573Z,79.51
2018-04-16T03:00:35.574Z,79.9
2018-04-16T03:01:35.557Z,79.91
2018-04-16T03:02:35.557Z,79.85
2018-04-16T03:03:35.549Z,79.51
2018-04-16T03:04:35.611Z,79.95
2018-04-16T03:05:35.555Z,79.94
2018-04-16T03:06:35.545Z,79.85
2018-04-16T03:07:35.565Z,79.54
2018-04-16T03:08:35.536Z,79.39
2018-04-16T03:09:35.532Z,79.98
2018-04-16T03:10:35.532Z,79.41
2018-04-16T03:11:35.554Z,80.14
2018-04-16T03:12:35.962Z,79.4
2018-04-16T03:13:35.597Z,79.37
2018-04-16T03:14:35.565Z,79.77
2018-04-16T03:15:35.530Z,79.81
2018-04-16T03:16:35.526Z,79.64
2018-04-16T03:17:35.566Z,79.72
2018-04-16T03:18:35.539Z,79.95
2018-04-16T03:19:35.545Z,79.61
2018-04-16T03:20:35.533Z,79.54
2018-04-16T03:21:35.504Z,79.26
2018-04-16T03:22:35.541Z,79.33
2018-04-16T03:23:35.492Z,79.35
2018-04-16T03:24:35.534Z,80.15
2018-04-16T03:25:35.673Z,80.07
2018-04-16T03:26:35.512Z,79.61
2018-04-16T03:27:35.508Z,80.65
2018-04-16T03:28:35.499Z,80.07
2018-04-16T03:29:35.486Z,80.38
2018-04-16T03:30:35.530Z,79.94
2018-04-16T03:31:35.589Z,79.86
2018-04-16T03:32:35.600Z,79.52
2018-04-16T03:33:35.515Z,79.85
2018-04-16T03:34:35.495Z,79.97
2018-04-16T03:35:35.616Z,79.57
2018-04-16T03:36:35.521Z,79.74
2018-04-16T03:37:35.567Z,80.19
2018-04-16T03:38:35.485Z,81.25
2018-04-16T03:39:35.499Z,80.09
2018-04-16T03:40:35.487Z,80.42
2018-04-16T03:41:35.494Z,81.08
2018-04-16T03:42:35.532Z,80.43
2018-04-16T03:43:35.514Z,80
2018-04-16T03:44:35.652Z,79.9
2018-04-16T03:45:35.472Z,79.69
2018-04-16T03:46:35.500Z,80.05
2018-04-16T03:47:35.480Z,79.68
2018-04-16T03:48:35.462Z,79.84
2018-04-16T03:49:35.488Z,80.48
2018-04-16T03:50:35.523Z,79.93
2018-04-16T03:51:35.476Z,80.04
2018-04-16T03:52:35.478Z,80.54
2018-04-16T03:53:35.485Z,80.57
2018-04-16T03:54:35.457Z,80.36
2018-04-16T03:55:35.462Z,80.66
2018-04-16T03:56:35.476Z,80.61
2018-04-16T03:57:35.533Z,80.79
2018-04-16T03:58:35.546Z,81.09
2018-04-16T03:59:35.465Z,80.61
2018-04-16T04:00:35.451Z,80.36
2018-04-16T04:01:35.465Z,80.29
2018-04-16T04:02:35.433Z,80.28
2018-04-16T04:03:35.436Z,80.54
2018-04-16T04:04:35.442Z,80.69
2018-04-16T04:05:35.445Z,80.45
2018-04-16T04:06:35.453Z,81.14
2018-04-16T04:07:35.481Z,80.82
2018-04-16T04:08:35.421Z,81.08
2018-04-16T04:09:35.431Z,81.21
2018-04-16T04:10:35.460Z,81.38
2018-04-16T04:11:35.494Z,81.05
2018-04-16T04:12:35.447Z,80.57
2018-04-16T04:13:35.421Z,80.44
2018-04-16T04:14:35.434Z,81.15
2018-04-16T04:15:35.422Z,80.61
2018-04-16T04:16:35.432Z,80.78
2018-04-16T04:17:35.491Z,80.76
2018-04-16T04:18:35.466Z,80.96
2018-04-16T04:19:35.469Z,80.54
2018-04-16T04:20:35.495Z,80.45
2018-04-16T04:21:35.424Z,80.62
2018-04-16T04:22:35.423Z,80.87
2018-04-16T04:23:35.416Z,81.38
2018-04-16T04:24:35.403Z,80.84
2018-04-16T04:25:35.422Z,80.57
2018-04-16T04:26:35.392Z,80.32
2018-04-16T04:27:35.436Z,81.19
2018-04-16T04:28:35.418Z,80.94
2018-04-16T04:29:35.395Z,80.96
2018-04-16T04:30:35.405Z,80.72
2018-04-16T04:31:35.390Z,81.1
2018-04-16T04:32:35.413Z,80.81
2018-04-16T04:33:35.426Z,80.52
2018-04-16T04:34:35.447Z,80.54
2018-04-16T04:35:35.417Z,80.86
2018-04-16T04:36:35.417Z,80.87
2018-04-16T04:37:35.520Z,80.99
2018-04-16T04:38:35.460Z,81.1
2018-04-16T04:39:35.395Z,80.69
2018-04-16T04:40:35.437Z,82.15
2018-04-16T04:41:35.375Z,81.05
2018-04-16T04:42:35.385Z,81.06
2018-04-16T04:43:35.530Z,80.88
2018-04-16T04:44:35.390Z,81.18
2018-04-16T04:45:35.453Z,81.09
2018-04-16T04:46:35.388Z,81.07
2018-04-16T04:47:35.381Z,81.71
2018-04-16T04:48:35.594Z,82.45
2018-04-16T04:49:35.389Z,81.56
2018-04-16T04:50:35.386Z,81.6
2018-04-16T04:51:35.388Z,81.45
2018-04-16T04:52:35.392Z,81.13
2018-04-16T04:53:35.394Z,81.37
2018-04-16T04:54:35.425Z,81.64
2018-04-16T04:55:35.433Z,81.69
2018-04-16T04:56:35.352Z,81.07
2018-04-16T04:57:35.383Z,83.11
2018-04-16T04:58:35.384Z,82.48
2018-04-16T04:59:35.370Z,82.87
2018-04-16T05:00:35.413Z,83.34
2018-04-16T05:01:35.379Z,82.58
2018-04-16T05:02:35.380Z,82.61
2018-04-16T05:03:35.419Z,82.64
2018-04-16T05:04:35.355Z,82.49
2018-04-16T05:05:35.411Z,83.23
2018-04-16T05:06:35.577Z,83.37
2018-04-16T05:07:35.345Z,83.32
2018-04-16T05:08:35.382Z,82.22
2018-04-16T05:09:35.367Z,83.28
2018-04-16T05:10:35.370Z,82.7
2018-04-16T05:11:35.353Z,82.11
2018-04-16T05:12:35.391Z,82.3
2018-04-16T05:13:35.399Z,82.17
2018-04-16T05:14:35.366Z,82.05
2018-04-16T05:15:35.353Z,82.19
2018-04-16T05:16:35.340Z,82.17
2018-04-16T05:17:35.349Z,82.84
2018-04-16T05:18:35.346Z,81.93
2018-04-16T05:19:35.380Z,82.54
2018-04-16T05:20:35.336Z,83.08
2018-04-16T05:21:35.333Z,82.92
2018-04-16T05:22:35.331Z,82.91
2018-04-16T05:23:35.501Z,82.18
2018-04-16T05:24:35.336Z,82.48
2018-04-16T05:25:35.359Z,81.84
2018-04-16T05:26:35.318Z,82.17
2018-04-16T05:27:35.323Z,81.95
2018-04-16T05:28:35.444Z,81.63
2018-04-16T05:29:35.320Z,82.55
2018-04-16T05:30:35.337Z,82.24
2018-04-16T05:31:35.331Z,82.13
2018-04-16T05:32:35.535Z,81.93
2018-04-16T05:33:35.490Z,82.47
2018-04-16T05:34:35.492Z,82.42
2018-04-16T05:35:35.329Z,82.04
2018-04-16T05:36:35.434Z,81.91
2018-04-16T05:37:35.315Z,82.11
2018-04-16T05:38:35.362Z,81.83
2018-04-16T05:39:35.398Z,82.15
2018-04-16T05:40:35.301Z,82.43
2018-04-16T05:41:35.307Z,82.09
2018-04-16T05:42:35.300Z,82.14
2018-04-16T05:43:35.287Z,82.44
2018-04-16T05:44:35.330Z,82.33
2018-04-16T05:45:35.353Z,82.48
2018-04-16T05:46:35.293Z,83.04
2018-04-16T05:47:35.330Z,83.15
2018-04-16T05:48:35.290Z,83.05
2018-04-16T05:49:35.333Z,82.55
2018-04-16T05:50:35.303Z,81.98
2018-04-16T05:51:35.301Z,82.65
2018-04-16T05:52:35.282Z,82.15
2018-04-16T05:53:35.276Z,82.2
2018-04-16T05:54:35.322Z,82.95
2018-04-16T05:55:35.290Z,82.5
2018-04-16T05:56:35.285Z,82.82
2018-04-16T05:57:35.279Z,82.62
2018-04-16T05:58:35.342Z,82.91
2018-04-16T05:59:35.328Z,82.91
2018-04-16T06:00:35.313Z,83.15
2018-04-16T06:01:35.261Z,83.03
2018-04-16T06:02:35.349Z,83.14
2018-04-16T06:03:35.268Z,84.39
2018-04-16T06:04:35.326Z,84.19
2018-04-16T06:05:35.278Z,84.28
2018-04-16T06:06:35.445Z,83.98
2018-04-16T06:07:35.301Z,84.29
2018-04-16T06:08:35.269Z,83.61
2018-04-16T06:09:35.406Z,84.09
2018-04-16T06:10:35.298Z,84.06
2018-04-16T06:11:35.399Z,83.74
2018-04-16T06:12:35.274Z,84.32
2018-04-16T06:13:35.416Z,85.12
2018-04-16T06:14:35.308Z,84.77
2018-04-16T06:15:35.269Z,84.87
2018-04-16T06:16:35.300Z,84.95
2018-04-16T06:17:35.288Z,84.85
2018-04-16T06:18:35.273Z,84.82
2018-04-16T06:19:35.236Z,84.79
2018-04-16T06:20:35.414Z,84.89
2018-04-16T06:21:35.258Z,85.18
2018-04-16T06:22:35.276Z,84.74
2018-04-16T06:23:35.279Z,84.45
2018-04-16T06:24:35.240Z,84.53
2018-04-16T06:25:35.271Z,84.71
2018-04-16T06:26:35.232Z,84.79
2018-04-16T06:27:35.235Z,84.88
2018-04-16T06:28:35.267Z,85.25
2018-04-16T06:29:35.222Z,85.12
2018-04-16T06:30:35.305Z,84.83
2018-04-16T06:31:35.211Z,85.19
2018-04-16T06:32:35.256Z,85.13
2018-04-16T06:33:35.394Z,85.03
2018-04-16T06:34:35.261Z,84.91
2018-04-16T06:35:35.497Z,84.73
2018-04-16T06:36:35.253Z,84.61
2018-04-16T06:37:35.250Z,84.89
2018-04-16T06:38:35.243Z,84.97
2018-04-16T06:39:35.228Z,85.2
2018-04-16T06:40:35.258Z,85.09
2018-04-16T06:41:35.258Z,85.08
2018-04-16T06:42:35.238Z,84.67
2018-04-16T06:43:35.246Z,84.47
2018-04-16T06:44:35.261Z,84.95
2018-04-16T06:45:35.303Z,84.44
2018-04-16T06:46:35.237Z,84.9
2018-04-16T06:47:35.196Z,84.86
2018-04-16T06:48:35.235Z,84.41
2018-04-16T06:49:35.196Z,84.3
2018-04-16T06:50:35.295Z,84.77
2018-04-16T06:51:35.196Z,84.58
2018-04-16T06:52:35.213Z,83.97
2018-04-16T06:53:35.212Z,83.76
2018-04-16T06:54:35.232Z,84.12
2018-04-16T06:55:35.230Z,83.86
2018-04-16T06:56:35.217Z,83.54
2018-04-16T06:57:35.193Z,83.72
2018-04-16T06:58:35.227Z,84.06
2018-04-16T06:59:35.220Z,84.32
2018-04-16T07:00:35.264Z,83.69
2018-04-16T07:01:35.207Z,83.57
2018-04-16T07:02:35.195Z,83.37
2018-04-16T07:03:35.193Z,83.34
2018-04-16T07:04:35.197Z,83.18
2018-04-16T07:05:35.242Z,83.23
2018-04-16T07:06:35.198Z,83.14
2018-04-16T07:07:35.177Z,82.94
2018-04-16T07:08:35.181Z,82.84
2018-04-16T07:09:35.184Z,82.58
2018-04-16T07:10:35.226Z,82.61
2018-04-16T07:11:35.260Z,82.13
2018-04-16T07:12:35.179Z,82.28
2018-04-16T07:13:35.180Z,82.58
2018-04-16T07:14:35.193Z,82.15
2018-04-16T07:15:35.170Z,82.15
2018-04-16T07:16:35.176Z,81.84
2018-04-16T07:17:35.204Z,81.55
2018-04-16T07:18:35.163Z,81.14
2018-04-16T07:19:35.226Z,81.54
2018-04-16T07:20:35.169Z,80.63
2018-04-16T07:21:35.323Z,80.53
2018-04-16T07:22:35.155Z,80.36
2018-04-16T07:23:35.162Z,80.72
2018-04-16T07:24:35.158Z,79.65
2018-04-16T07:25:35.159Z,79.25
2018-04-16T07:26:35.254Z,79.92
2018-04-16T07:27:35.213Z,79.98
2018-04-16T07:28:35.131Z,81.04
2018-04-16T07:29:35.149Z,80.54
2018-04-16T07:30:35.191Z,80.26
2018-04-16T07:31:35.151Z,80.17
2018-04-16T07:32:35.128Z,80.08
2018-04-16T07:33:35.359Z,79.72
2018-04-16T07:34:35.247Z,79.21
2018-04-16T07:35:35.217Z,78.74
2018-04-16T07:36:35.135Z,79.18
2018-04-16T07:37:35.243Z,78.99
2018-04-16T07:38:35.175Z,79.15
2018-04-16T07:39:35.146Z,79.44
2018-04-16T07:40:35.133Z,79.34
2018-04-16T07:41:35.115Z,78.52
2018-04-16T07:42:35.181Z,78.83
2018-04-16T07:43:35.127Z,78.14
2018-04-16T07:44:35.137Z,77.98
2018-04-16T07:45:35.251Z,79.17
2018-04-16T07:46:35.123Z,78.43
2018-04-16T07:47:35.113Z,78.89
2018-04-16T07:48:35.115Z,77.5
2018-04-16T07:49:35.119Z,77.72
2018-04-16T07:50:35.140Z,77.23
2018-04-16T07:51:35.111Z,77.31
2018-04-16T07:52:35.138Z,77.91
2018-04-16T07:53:35.108Z,77.72
2018-04-16T07:54:35.111Z,77.28
2018-04-16T07:55:35.269Z,77.04
2018-04-16T07:56:35.160Z,77.16
2018-04-16T07:57:35.160Z,76.13
2018-04-16T07:58:35.126Z,76.24
2018-04-16T07:59:35.117Z,76.53
2018-04-16T08:00:35.110Z,77.1
2018-04-16T08:01:35.091Z,77.37
2018-04-16T08:02:35.114Z,77.04
2018-04-16T08:03:35.082Z,76.55
2018-04-16T08:04:35.115Z,76.09
2018-04-16T08:05:35.102Z,75.1
2018-04-16T08:06:35.199Z,74.65
2018-04-16T08:07:35.100Z,73.43
2018-04-16T08:08:35.107Z,73.53
2018-04-16T08:09:35.103Z,74.31
2018-04-16T08:10:35.102Z,73.19
2018-04-16T08:11:35.072Z,73.12
2018-04-16T08:12:35.212Z,73.65
2018-04-16T08:13:35.074Z,73.68
2018-04-16T08:14:35.085Z,74.05
2018-04-16T08:15:35.094Z,73.06
2018-04-16T08:16:35.261Z,72.76
2018-04-16T08:17:35.144Z,72.03
2018-04-16T08:18:35.103Z,70.65
2018-04-16T08:19:35.088Z,71.04
2018-04-16T08:20:35.074Z,70.97
2018-04-16T08:21:35.093Z,71.49
2018-04-16T08:22:35.100Z,71.55
2018-04-16T08:23:35.121Z,71.44
2018-04-16T08:24:35.075Z,71.01
2018-04-16T08:25:35.092Z,70.88
2018-04-16T08:26:35.083Z,70.21
2018-04-16T08:27:35.246Z,66.67
2018-04-16T08:28:35.123Z,67.77
2018-04-16T08:29:35.085Z,69.25
2018-04-16T08:30:35.197Z,70.06
2018-04-16T08:31:35.066Z,70.03
2018-04-16T08:32:35.101Z,69.21
2018-04-16T08:33:35.052Z,69.76
2018-04-16T08:34:35.057Z,67.74
2018-04-16T08:35:35.063Z,64.53
2018-04-16T08:36:35.056Z,63.46
2018-04-16T08:37:35.161Z,62.47
2018-04-16T08:38:35.103Z,63.13
2018-04-16T08:39:35.093Z,65.22
2018-04-16T08:40:35.090Z,65.76
2018-04-16T08:41:35.072Z,64.53
2018-04-16T08:42:35.132Z,63.71
2018-04-16T08:43:35.034Z,61.88
2018-04-16T08:44:35.074Z,60.83
2018-04-16T08:45:35.082Z,61.47
2018-04-16T08:46:35.099Z,62.29
2018-04-16T08:47:35.065Z,62.53
2018-04-16T08:48:35.047Z,61.45
2018-04-16T08:49:35.091Z,62.3
2018-04-16T08:50:35.042Z,62.45
2018-04-16T08:51:35.048Z,63.26
2018-04-16T08:52:35.290Z,63.52
2018-04-16T08:53:35.050Z,62.72
2018-04-16T08:54:35.020Z,61.01
2018-04-16T08:55:35.035Z,61.75
2018-04-16T08:56:35.001Z,62.2
2018-04-16T08:57:35.208Z,63.1
2018-04-16T08:58:34.996Z,60.8
2018-04-16T08:59:35.205Z,60.47
2018-04-16T09:00:35.387Z,60.73
2018-04-16T09:01:35.012Z,60.32
2018-04-16T09:02:35.076Z,58.9
2018-04-16T09:03:35.038Z,57.86
2018-04-16T09:04:35.011Z,56.8
2018-04-16T09:05:35.007Z,57.4
2018-04-16T09:06:35.005Z,55.84
2018-04-16T09:07:35.030Z,54.63
2018-04-16T09:08:35.031Z,54.33
2018-04-16T09:09:35.015Z,54.73
2018-04-16T09:10:35.009Z,53.2
2018-04-16T09:11:35.009Z,54.12
2018-04-16T09:12:35.005Z,54.04
2018-04-16T09:13:35.001Z,54.15
2018-04-16T09:14:34.988Z,55.11
2018-04-16T09:15:34.989Z,55.7
2018-04-16T09:16:34.987Z,54.27
2018-04-16T09:17:35.092Z,54.4
2018-04-16T09:18:34.995Z,53.32
2018-04-16T09:19:35.096Z,53.57
2018-04-16T09:20:35.113Z,54.17
2018-04-16T09:21:34.975Z,54.08
2018-04-16T09:22:35.030Z,53.73
2018-04-16T09:23:34.989Z,54.52
2018-04-16T09:24:34.974Z,53.83
2018-04-16T09:25:34.985Z,52.85
2018-04-16T09:26:35.021Z,51.56
2018-04-16T09:27:35.197Z,51.9
2018-04-16T09:28:35.023Z,52.43
2018-04-16T09:29:35.017Z,50.49
2018-04-16T09:30:34.973Z,50.92
2018-04-16T09:31:34.987Z,50.93
2018-04-16T09:32:35.027Z,51.1
2018-04-16T09:33:35.006Z,50.03
2018-04-16T09:34:35.064Z,50.81
2018-04-16T09:35:35.020Z,51.15
2018-04-16T09:36:35.082Z,52.79
2018-04-16T09:37:35.205Z,52.58
2018-04-16T09:38:35.088Z,53.42
2018-04-16T09:39:35.179Z,52.07
2018-04-16T09:40:35.004Z,53.42
2018-04-16T09:41:34.949Z,53.99
2018-04-16T09:42:35.127Z,53.92
2018-04-16T09:43:35.232Z,53.09
2018-04-16T09:44:35.041Z,52.57
2018-04-16T09:45:35.077Z,51.38
2018-04-16T09:46:35.064Z,51.47
2018-04-16T09:47:34.963Z,51.45
2018-04-16T09:48:34.976Z,52.6
2018-04-16T09:49:35.004Z,51.38
2018-04-16T09:50:35.033Z,50.53
2018-04-16T09:51:34.955Z,50.84
2018-04-16T09:52:34.928Z,52.21
2018-04-16T09:53:34.986Z,51.28
2018-04-16T09:54:34.960Z,52.32
2018-04-16T09:55:35.130Z,51.7
2018-04-16T09:56:35.109Z,50.29
2018-04-16T09:57:35.134Z,50.82
2018-04-16T09:58:34.966Z,51.71
2018-04-16T09:59:35.026Z,48.77
2018-04-16T10:00:35.074Z,48.7
2018-04-16T10:01:35.046Z,48.36
2018-04-16T10:02:34.950Z,48.95
2018-04-16T10:03:34.957Z,48.46
2018-04-16T10:04:34.915Z,47.81
2018-04-16T10:05:34.910Z,47.8
2018-04-16T10:06:34.957Z,47.57
2018-04-16T10:07:34.909Z,47.95
2018-04-16T10:08:34.992Z,48.13
2018-04-16T10:09:34.908Z,47.42
2018-04-16T10:10:34.935Z,49.09
2018-04-16T10:11:34.895Z,49.29
2018-04-16T10:12:35.019Z,49.22
2018-04-16T10:13:34.935Z,48.18
2018-04-16T10:14:34.912Z,48.6
2018-04-16T10:15:34.909Z,48.67
2018-04-16T10:16:34.973Z,47.61
2018-04-16T10:17:34.900Z,47.72
2018-04-16T10:18:34.919Z,47.21
2018-04-16T10:19:34.909Z,46.96
2018-04-16T10:20:34.907Z,45.62
2018-04-16T10:21:34.921Z,45.57
2018-04-16T10:22:34.980Z,46.24
2018-04-16T10:23:34.956Z,45.63
2018-04-16T10:24:34.942Z,46.16
2018-04-16T10:25:34.933Z,44.32
2018-04-16T10:26:35.053Z,45.84
2018-04-16T10:27:35.131Z,44.95
2018-04-16T10:28:35.050Z,44.93
2018-04-16T10:29:34.954Z,45.89
2018-04-16T10:30:34.885Z,46.67
2018-04-16T10:31:34.919Z,44.71
2018-04-16T10:32:34.955Z,43.69
2018-04-16T10:33:35.099Z,43.79
2018-04-16T10:34:34.980Z,43.83
2018-04-16T10:35:34.925Z,43.11
2018-04-16T10:36:34.893Z,43.09
2018-04-16T10:37:34.894Z,43.21
2018-04-16T10:38:34.925Z,43.28
2018-04-16T10:39:35.093Z,44.29
2018-04-16T10:40:34.892Z,44.6
2018-04-16T10:41:34.890Z,45.03
2018-04-16T10:42:34.907Z,45.33
2018-04-16T10:43:35.013Z,45.78
2018-04-16T10:44:34.942Z,46.07
2018-04-16T10:45:34.873Z,43.18
2018-04-16T10:46:34.927Z,43.72
2018-04-16T10:47:35.084Z,43.3
2018-04-16T10:48:34.895Z,42.81
2018-04-16T10:49:34.897Z,42.17
2018-04-16T10:50:34.909Z,42.38
2018-04-16T10:51:34.961Z,43.02
2018-04-16T10:52:34.863Z,43.23
2018-04-16T10:53:34.869Z,43.07
2018-04-16T10:54:35.024Z,38.26
2018-04-16T10:55:35.077Z,39.07
2018-04-16T10:56:34.855Z,39.39
2018-04-16T10:57:35.016Z,41.22
2018-04-16T10:58:34.973Z,42.13
2018-04-16T10:59:34.872Z,41.28
2018-04-16T11:00:34.891Z,41.5
2018-04-16T11:01:35.013Z,41.17
2018-04-16T11:02:34.897Z,41.35
2018-04-16T11:03:34.851Z,42.12
2018-04-16T11:04:35.029Z,41.61
2018-04-16T11:05:34.844Z,38.59
2018-04-16T11:06:34.836Z,39.21
2018-04-16T11:07:34.861Z,39.99
2018-04-16T11:08:35.022Z,41.06
2018-04-16T11:09:34.852Z,40.81
2018-04-16T11:10:34.887Z,40.69
2018-04-16T11:11:34.843Z,40.09
2018-04-16T11:12:34.863Z,40.16
2018-04-16T11:13:34.839Z,40.52
2018-04-16T11:14:34.868Z,40.47
2018-04-16T11:15:34.853Z,39.48
2018-04-16T11:16:34.848Z,38.9
2018-04-16T11:17:34.836Z,40.4
2018-04-16T11:18:34.927Z,40.87
2018-04-16T11:19:34.855Z,38.85
2018-04-16T11:20:34.840Z,37.9
2018-04-16T11:21:34.863Z,38.3
2018-04-16T11:22:34.862Z,36.95
2018-04-16T11:23:34.835Z,37.14
2018-04-16T11:24:34.898Z,38.29
2018-04-16T11:25:34.857Z,38.21
2018-04-16T11:26:34.817Z,39.42
2018-04-16T11:27:34.832Z,39.7
2018-04-16T11:28:35.037Z,40.2
2018-04-16T11:29:34.864Z,39.02
2018-04-16T11:30:34.845Z,40.82
2018-04-16T11:31:34.822Z,40.39
2018-04-16T11:32:34.825Z,39.98
2018-04-16T11:33:34.882Z,41.02
2018-04-16T11:34:34.862Z,40.37
2018-04-16T11:35:34.934Z,40.41
2018-04-16T11:36:34.847Z,40.75
2018-04-16T11:37:34.785Z,39.96
2018-04-16T11:38:34.787Z,40.36
2018-04-16T11:39:34.901Z,40.33
2018-04-16T11:40:34.792Z,40.11
2018-04-16T11:41:35.038Z,39.94
2018-04-16T11:42:34.785Z,40.64
2018-04-16T11:43:34.827Z,40.36
2018-04-16T11:44:34.786Z,40.68
2018-04-16T11:45:34.969Z,40.53
2018-04-16T11:46:34.792Z,40.4
2018-04-16T11:47:35.091Z,40.14
2018-04-16T11:48:35.399Z,39.37
2018-04-16T11:49:34.921Z,40.36
2018-04-16T11:50:34.877Z,39.98
2018-04-16T11:51:34.794Z,39.97
2018-04-16T11:52:34.800Z,40.18
2018-04-16T11:53:34.772Z,40.32
2018-04-16T11:54:34.826Z,39.97
2018-04-16T11:55:34.795Z,39.76
2018-04-16T11:56:34.759Z,39.9
2018-04-16T11:57:35.104Z,40.47
2018-04-16T11:58:34.791Z,41.84
2018-04-16T11:59:34.753Z,41.28
2018-04-16T12:00:34.776Z,40.7
2018-04-16T12:01:34.781Z,40.87
2018-04-16T12:02:34.769Z,40.98
2018-04-16T12:03:34.758Z,41.75
2018-04-16T12:04:35.199Z,41.2
2018-04-16T12:05:34.792Z,40.64
2018-04-16T12:06:34.930Z,41.91
2018-04-16T12:07:34.727Z,41.3
2018-04-16T12:08:34.875Z,40.9
2018-04-16T12:09:34.810Z,41.54
2018-04-16T12:10:34.790Z,41.2
2018-04-16T12:11:34.852Z,41.3
2018-04-16T12:12:34.780Z,41.03
2018-04-16T12:13:34.744Z,41.39
2018-04-16T12:14:34.745Z,41.71
2018-04-16T12:15:34.728Z,41.29
2018-04-16T12:16:34.964Z,42.18
2018-04-16T12:17:34.729Z,41.63
2018-04-16T12:18:34.733Z,41.75
2018-04-16T12:19:34.745Z,41.7
2018-04-16T12:20:34.754Z,41.15
2018-04-16T12:21:34.746Z,42.38
2018-04-16T12:22:34.738Z,41.53
2018-04-16T12:23:34.862Z,40.9
2018-04-16T12:24:34.774Z,40.85
2018-04-16T12:25:34.768Z,41.16
2018-04-16T12:26:34.806Z,41.97
2018-04-16T12:27:34.747Z,41.82
2018-04-16T12:28:34.733Z,41.78
2018-04-16T12:29:34.851Z,41.7
2018-04-16T12:30:34.803Z,42.01
2018-04-16T12:31:34.839Z,41.24
2018-04-16T12:32:34.711Z,41.07
2018-04-16T12:33:34.727Z,42.45
2018-04-16T12:34:34.757Z,41.94
2018-04-16T12:35:34.748Z,42.25
2018-04-16T12:36:34.748Z,41.11
2018-04-16T12:37:34.748Z,40.93
2018-04-16T12:38:34.769Z,40.96
2018-04-16T12:39:34.718Z,41.09
2018-04-16T12:40:34.784Z,41.9
2018-04-16T12:41:34.972Z,42.66
2018-04-16T12:42:34.925Z,42.4
2018-04-16T12:43:34.710Z,41.54
2018-04-16T12:44:34.730Z,42.16
2018-04-16T12:45:34.777Z,42.51
2018-04-16T12:46:34.712Z,41.36
2018-04-16T12:47:34.897Z,40.81
2018-04-16T12:48:34.715Z,40.93
2018-04-16T12:49:34.778Z,41.53
2018-04-16T12:50:34.686Z,40.97
2018-04-16T12:51:34.691Z,42.26
2018-04-16T12:52:34.682Z,42.17
2018-04-16T12:53:34.795Z,42.36
2018-04-16T12:54:34.703Z,42.4
2018-04-16T12:55:34.708Z,42.7
2018-04-16T12:56:34.755Z,43.71